Time;durP1;ratioP1;P1;durP2;ratioP2;P2;SDS_P1;SDS_P2;PMS_P1;PMS_P2;Temp;Humidity;BMP_temperature;BMP_pressure;BME280_temperature;BME280_humidity;BME280_pressure;Samples;Min_cycle;Max_cycle;Signal;HPM_P1;HPM_P2
2021/12/01 00:00:22;;;;;;;1.20;0.60;;;;;;;3.78;99.44;95496.38;5002602;28;20042;-71
2021/12/01 00:02:53;;;;;;;1.23;0.57;;;;;;;3.76;99.57;95506.38;5002828;28;20140;-70
2021/12/01 00:05:23;;;;;;;1.73;0.80;;;;;;;3.81;99.87;95508.31;5001933;28;20740;-70
2021/12/01 00:07:50;;;;;;;1.98;0.82;;;;;;;3.85;99.39;95496.25;5002728;28;20060;-71
2021/12/01 00:10:17;;;;;;;1.90;0.73;;;;;;;3.87;99.47;95495.00;5003072;28;20050;-70
2021/12/01 00:12:43;;;;;;;1.75;0.85;;;;;;;3.83;99.46;95487.75;5002785;28;20500;-70
2021/12/01 00:15:09;;;;;;;1.15;0.65;;;;;;;3.77;99.88;95484.19;5004933;28;20041;-72
2021/12/01 00:17:35;;;;;;;1.10;0.60;;;;;;;3.79;100.00;95482.09;5001778;28;20103;-73
2021/12/01 00:20:02;;;;;;;1.70;0.80;;;;;;;3.89;99.96;95478.88;5002514;28;20030;-71
2021/12/01 00:22:28;;;;;;;1.73;0.70;;;;;;;3.84;99.80;95473.47;5001589;28;20042;-71
2021/12/01 00:24:54;;;;;;;0.75;0.40;;;;;;;3.83;100.00;95472.69;5001471;28;20467;-73
2021/12/01 00:27:20;;;;;;;1.13;0.55;;;;;;;3.81;100.00;95473.94;5004229;28;20065;-70
2021/12/01 00:29:46;;;;;;;0.88;0.45;;;;;;;3.79;100.00;95470.72;5006084;28;20674;-72
2021/12/01 00:32:12;;;;;;;1.77;0.55;;;;;;;3.77;100.00;95473.59;5001940;28;20050;-71
2021/12/01 00:34:37;;;;;;;1.23;0.63;;;;;;;3.78;100.00;95469.09;5000250;28;20345;-73
2021/12/01 00:37:03;;;;;;;2.10;1.10;;;;;;;3.78;100.00;95458.53;5001404;28;20066;-70
2021/12/01 00:39:29;;;;;;;2.00;0.90;;;;;;;3.79;100.00;95465.41;5002916;28;20045;-72
2021/12/01 00:41:56;;;;;;;1.05;0.60;;;;;;;3.79;100.00;95453.00;5003673;28;20045;-70
2021/12/01 00:44:22;;;;;;;3.42;1.00;;;;;;;3.85;100.00;95457.38;5005820;28;20435;-72
2021/12/01 00:49:18;;;;;;;2.30;1.10;;;;;;;3.86;100.00;95452.88;5009429;28;20042;-70
2021/12/01 00:51:44;;;;;;;1.40;0.80;;;;;;;3.83;100.00;95453.34;5000991;28;20384;-70
2021/12/01 00:54:09;;;;;;;1.58;0.80;;;;;;;3.78;100.00;95450.56;5000075;28;20046;-70
2021/12/01 00:56:35;;;;;;;2.08;1.00;;;;;;;3.82;100.00;95436.66;5005457;28;20345;-72
2021/12/01 00:59:01;;;;;;;2.10;1.17;;;;;;;3.82;100.00;95430.56;5001090;28;20038;-73
2021/12/01 01:01:26;;;;;;;2.17;1.10;;;;;;;3.92;100.00;95444.81;5002212;28;20045;-70
2021/12/01 01:03:52;;;;;;;3.60;1.70;;;;;;;3.88;100.00;95437.56;5002269;28;20543;-70
2021/12/01 01:06:18;;;;;;;1.88;0.82;;;;;;;3.81;100.00;95436.88;5000772;28;20444;-71
2021/12/01 01:08:45;;;;;;;2.17;1.00;;;;;;;3.85;100.00;95433.56;5000522;28;20034;-70
2021/12/01 01:16:22;;;;;;;1.70;0.95;;;;;;;3.75;100.00;95416.66;5001576;28;20044;-69
2021/12/01 01:16:43;;;;;;;2.67;1.50;;;;;;;3.79;100.00;95402.72;5001221;28;20499;-70
2021/12/01 01:19:11;;;;;;;1.92;1.05;;;;;;;3.79;100.00;95407.19;5000369;28;20042;-72
2021/12/01 01:21:43;;;;;;;2.58;1.30;;;;;;;3.83;100.00;95398.56;5000198;28;20050;-73
2021/12/01 01:24:09;;;;;;;1.70;1.02;;;;;;;3.82;100.00;95396.97;4999147;28;20487;-71
2021/12/01 01:26:35;;;;;;;3.95;1.55;;;;;;;3.79;100.00;95389.47;5001704;28;20046;-71
2021/12/01 01:29:03;;;;;;;3.33;1.75;;;;;;;3.79;100.00;95386.03;4999941;28;20030;-73
2021/12/01 01:31:29;;;;;;;1.77;0.98;;;;;;;3.78;100.00;95384.44;5004865;28;20694;-71
2021/12/01 01:33:57;;;;;;;2.50;1.42;;;;;;;3.79;100.00;95386.03;4989808;28;20069;-71
2021/12/01 01:36:23;;;;;;;1.75;0.93;;;;;;;3.77;100.00;95364.28;4998338;28;20100;-73
2021/12/01 01:38:49;;;;;;;2.40;1.20;;;;;;;3.77;100.00;95382.81;5003641;28;20044;-73
2021/12/01 01:41:15;;;;;;;3.17;1.40;;;;;;;3.73;100.00;95352.56;5001681;28;20049;-73
2021/12/01 01:43:44;;;;;;;2.67;1.30;;;;;;;3.67;100.00;95366.72;5000795;28;20484;-70
2021/12/01 01:46:10;;;;;;;2.63;1.52;;;;;;;3.63;100.00;95376.94;5000461;28;20060;-72
2021/12/01 01:48:45;;;;;;;4.72;1.40;;;;;;;3.67;100.00;95370.19;4997839;28;20062;-71
2021/12/01 01:51:11;;;;;;;1.58;0.93;;;;;;;3.67;100.00;95346.38;4998373;28;20038;-70
2021/12/01 01:53:37;;;;;;;1.73;0.98;;;;;;;3.73;100.00;95345.41;5001860;28;20053;-71
2021/12/01 01:56:05;;;;;;;2.17;0.90;;;;;;;3.66;100.00;95351.88;4999308;28;20042;-70
2021/12/01 01:58:32;;;;;;;2.67;1.33;;;;;;;3.70;100.00;95323.91;5002370;28;20105;-71
2021/12/01 02:01:10;;;;;;;1.52;0.75;;;;;;;3.62;100.00;95307.38;5002549;28;20042;-70
2021/12/01 02:03:41;;;;;;;2.38;1.25;;;;;;;3.60;100.00;95330.59;4998569;28;20108;-71
2021/12/01 02:06:09;;;;;;;2.33;1.08;;;;;;;3.60;100.00;95316.56;5000829;28;20069;-73
2021/12/01 02:08:37;;;;;;;2.95;1.50;;;;;;;3.61;100.00;95310.25;5002500;28;20521;-71
2021/12/01 02:11:10;;;;;;;5.15;1.35;;;;;;;3.56;100.00;95305.63;4998396;28;20038;-70
2021/12/01 02:13:36;;;;;;;2.65;1.33;;;;;;;3.60;100.00;95306.81;5001241;28;20608;-70
2021/12/01 02:16:04;;;;;;;1.83;0.85;;;;;;;3.53;100.00;95318.53;4999123;28;20038;-69
2021/12/01 02:18:29;;;;;;;3.10;1.60;;;;;;;3.66;100.00;95304.25;5000826;28;20045;-70
2021/12/01 02:20:58;;;;;;;2.30;1.25;;;;;;;3.63;100.00;95287.00;4998211;28;20069;-70
2021/12/01 02:23:23;;;;;;;2.63;1.38;;;;;;;3.60;100.00;95285.63;5001077;28;20042;-70
2021/12/01 02:25:49;;;;;;;3.20;1.50;;;;;;;3.64;100.00;95293.91;4999597;28;20056;-70
2021/12/01 02:28:18;;;;;;;3.20;1.38;;;;;;;3.60;100.00;95293.56;4999323;28;20034;-71
2021/12/01 02:30:44;;;;;;;3.17;1.63;;;;;;;3.60;100.00;95272.41;5001100;28;20064;-72
2021/12/01 02:33:10;;;;;;;3.03;1.60;;;;;;;3.66;100.00;95265.38;5000208;28;20552;-71
2021/12/01 02:35:35;;;;;;;1.65;0.90;;;;;;;3.69;100.00;95261.47;5000327;28;20046;-69
2021/12/01 02:38:05;;;;;;;1.83;1.00;;;;;;;3.61;100.00;95265.28;4999346;28;20065;-71
2021/12/01 02:40:32;;;;;;;2.97;1.13;;;;;;;3.61;100.00;95252.03;5002349;28;20658;-72
2021/12/01 02:42:57;;;;;;;3.08;1.25;;;;;;;3.51;100.00;95273.81;5001530;28;20049;-72
2021/12/01 02:45:23;;;;;;;2.20;1.20;;;;;;;3.49;100.00;95246.75;5001401;28;20046;-70
2021/12/01 02:47:48;;;;;;;2.22;1.20;;;;;;;3.54;100.00;95230.22;5000451;28;20037;-73
2021/12/01 02:50:14;;;;;;;2.75;1.15;;;;;;;3.47;100.00;95251.50;4999645;28;20590;-72
2021/12/01 02:52:40;;;;;;;2.45;1.20;;;;;;;3.44;100.00;95232.66;4999627;28;20527;-70
2021/12/01 02:55:09;;;;;;;2.17;1.13;;;;;;;3.45;100.00;95224.47;4999037;28;20050;-71
2021/12/01 02:57:52;;;;;;;1.70;1.08;;;;;;;3.45;100.00;95223.69;4998982;28;20341;-70
2021/12/01 03:00:21;;;;;;;2.70;1.13;;;;;;;3.40;100.00;95195.28;5001022;28;20096;-74
2021/12/01 03:02:47;;;;;;;3.22;1.17;;;;;;;3.41;100.00;95202.16;5001131;28;20120;-71
2021/12/01 03:05:16;;;;;;;2.45;1.25;;;;;;;3.39;100.00;95201.59;4999744;28;20042;-71
2021/12/01 03:07:42;;;;;;;1.92;0.98;;;;;;;3.40;100.00;95195.28;5000217;28;20046;-69
2021/12/01 03:10:09;;;;;;;2.30;1.13;;;;;;;3.38;100.00;95186.78;5016010;28;20143;-72
2021/12/01 03:12:37;;;;;;;3.55;1.50;;;;;;;3.46;100.00;95201.47;4999496;28;20078;-72
2021/12/01 03:15:04;;;;;;;3.88;1.83;;;;;;;3.45;100.00;95187.44;5001139;28;20045;-70
2021/12/01 03:17:31;;;;;;;5.43;1.75;;;;;;;3.42;100.00;95190.56;5001250;28;20120;-71
2021/12/01 03:19:57;;;;;;;1.83;1.13;;;;;;;3.45;100.00;95161.00;5001408;28;20045;-72
2021/12/01 03:22:24;;;;;;;2.00;1.00;;;;;;;3.41;100.00;95174.94;5002777;28;20444;-70
2021/12/01 03:24:51;;;;;;;3.42;1.70;;;;;;;3.37;99.96;95171.97;5001230;28;20049;-71
2021/12/01 03:27:17;;;;;;;2.67;1.10;;;;;;;3.39;99.97;95159.28;5002878;28;20038;-72
2021/12/01 03:29:48;;;;;;;3.03;1.38;;;;;;;3.41;99.61;95162.50;5002696;28;20069;-72
2021/12/01 03:32:15;;;;;;;3.60;1.40;;;;;;;3.40;99.90;95133.66;5000901;28;20186;-71
2021/12/01 03:34:41;;;;;;;2.13;1.10;;;;;;;3.42;99.83;95147.44;5006284;28;20034;-71
2021/12/01 03:37:08;;;;;;;1.92;1.02;;;;;;;3.43;99.17;95138.50;5002141;28;20385;-71
2021/12/01 03:39:33;;;;;;;5.53;2.85;;;;;;;3.42;99.02;95135.00;5000996;28;20062;-70
2021/12/01 03:41:59;;;;;;;3.17;1.65;;;;;;;3.44;98.88;95130.31;5003541;28;20076;-70
2021/12/01 03:44:24;;;;;;;2.90;1.48;;;;;;;3.42;98.73;95124.44;5001486;28;20460;-71
2021/12/01 03:46:51;;;;;;;3.13;1.55;;;;;;;3.37;99.07;95108.50;5004230;28;20472;-69
2021/12/01 03:49:20;;;;;;;3.25;1.30;;;;;;;3.38;99.03;95110.09;5003211;28;20105;-71
2021/12/01 03:51:46;;;;;;;3.33;1.65;;;;;;;3.40;98.95;95099.28;5001927;28;20062;-70
2021/12/01 03:54:12;;;;;;;2.42;1.30;;;;;;;3.39;98.68;95110.91;5004206;28;20179;-71
2021/12/01 03:56:38;;;;;;;3.20;1.70;;;;;;;3.34;98.99;95095.72;5002957;28;20034;-70
2021/12/01 03:59:04;;;;;;;4.47;2.35;;;;;;;3.43;99.14;95069.72;5002127;28;20401;-70
2021/12/01 04:01:31;;;;;;;3.00;1.52;;;;;;;3.40;98.72;95060.41;5001416;28;20480;-70
2021/12/01 04:03:58;;;;;;;4.00;2.38;;;;;;;3.39;98.30;95064.09;4999301;28;20509;-70
2021/12/01 04:06:25;;;;;;;4.18;2.00;;;;;;;3.39;98.31;95052.72;5001021;28;20092;-73
2021/12/01 04:08:51;;;;;;;3.88;2.25;;;;;;;3.39;98.22;95084.44;5000313;28;20084;-70
2021/12/01 04:11:17;;;;;;;3.85;1.92;;;;;;;3.37;98.36;95066.19;5000532;28;20030;-70
2021/12/01 04:13:42;;;;;;;3.83;1.80;;;;;;;3.38;98.58;95067.78;5001960;28;20060;-70
2021/12/01 04:16:08;;;;;;;4.22;2.28;;;;;;;3.44;98.11;95072.13;4998952;28;20420;-70
2021/12/01 04:18:33;;;;;;;4.55;2.55;;;;;;;3.41;98.05;95058.56;5000990;28;20269;-71
2021/12/01 04:20:59;;;;;;;4.15;2.10;;;;;;;3.44;97.80;95056.25;5000420;28;20088;-72
2021/12/01 04:23:25;;;;;;;6.88;2.25;;;;;;;3.47;97.82;95047.03;5003465;28;20042;-70
2021/12/01 04:25:51;;;;;;;5.40;2.30;;;;;;;3.45;97.57;95030.63;5001133;28;20057;-73
2021/12/01 04:28:17;;;;;;;5.07;2.55;;;;;;;3.45;97.71;95047.28;5003208;28;20064;-71
2021/12/01 04:30:42;;;;;;;6.07;2.65;;;;;;;3.49;97.56;95061.63;4998317;28;20069;-70
2021/12/01 04:33:08;;;;;;;3.17;1.88;;;;;;;3.50;97.19;95050.03;5001596;28;20046;-72
2021/12/01 04:35:34;;;;;;;4.40;2.28;;;;;;;3.49;96.99;95058.97;5001896;28;20042;-70
2021/12/01 04:38:00;;;;;;;7.15;2.60;;;;;;;3.51;97.43;95040.25;4998818;28;20038;-70
2021/12/01 04:40:26;;;;;;;1.60;0.90;;;;;;;3.53;96.66;95057.47;5001172;28;20092;-70
2021/12/01 04:42:52;;;;;;;6.75;3.00;;;;;;;3.54;96.67;95035.28;5028235;28;20097;-70
2021/12/01 04:45:19;;;;;;;7.93;3.03;;;;;;;3.46;97.04;95027.72;5001158;28;20045;-71
2021/12/01 04:47:49;;;;;;;3.95;2.30;;;;;;;3.52;97.06;95033.91;4999809;28;20072;-71
2021/12/01 04:50:17;;;;;;;3.43;1.60;;;;;;;3.53;97.44;95024.94;4999711;28;20065;-70
2021/12/01 04:52:44;;;;;;;3.83;2.13;;;;;;;3.49;97.29;95052.88;5002007;28;20045;-70
2021/12/01 04:55:11;;;;;;;3.35;1.95;;;;;;;3.46;97.44;95025.09;5000629;28;20450;-71
2021/12/01 04:57:45;;;;;;;4.88;2.40;;;;;;;3.42;97.47;95037.16;4999993;28;20559;-71
2021/12/01 05:00:15;;;;;;;3.67;1.83;;;;;;;3.33;97.81;95026.19;4998921;28;20476;-70
2021/12/01 05:02:40;;;;;;;4.75;2.88;;;;;;;3.39;97.72;95032.38;4997873;28;20540;-70
2021/12/01 05:05:06;;;;;;;3.10;1.60;;;;;;;3.41;97.84;95035.56;4998406;28;20046;-72
2021/12/01 05:07:32;;;;;;;4.45;2.40;;;;;;;3.44;98.05;95005.22;5004534;28;20117;-70
2021/12/01 05:09:58;;;;;;;4.57;2.45;;;;;;;3.36;97.75;95027.56;5001420;28;20499;-71
2021/12/01 05:12:24;;;;;;;4.85;1.80;;;;;;;3.37;97.88;95031.00;5005151;28;20037;-70
2021/12/01 05:14:50;;;;;;;4.78;1.92;;;;;;;3.36;97.78;95016.97;5011115;28;20039;-70
2021/12/01 05:17:17;;;;;;;4.43;2.03;;;;;;;3.40;97.65;94985.56;5008731;28;20065;-72
2021/12/01 05:19:43;;;;;;;2.70;1.52;;;;;;;3.41;97.75;94982.69;4999790;28;20030;-71
2021/12/01 05:22:09;;;;;;;3.78;1.42;;;;;;;3.43;97.24;94959.47;4998261;28;20072;-70
2021/12/01 05:24:35;;;;;;;5.35;1.58;;;;;;;3.47;97.08;94960.56;5001257;28;20045;-71
2021/12/01 05:27:00;;;;;;;2.65;1.33;;;;;;;3.45;97.00;94957.38;4999752;28;20042;-71
2021/12/01 05:29:26;;;;;;;1.85;1.08;;;;;;;3.43;96.65;94943.59;4999370;28;20041;-71
2021/12/01 05:31:53;;;;;;;2.15;1.20;;;;;;;3.43;96.30;94929.56;4996110;28;20042;-70
2021/12/01 05:34:19;;;;;;;2.05;1.05;;;;;;;3.45;96.63;94927.47;4999302;28;20076;-71
2021/12/01 05:36:44;;;;;;;5.82;1.50;;;;;;;3.45;96.59;94919.53;5000672;28;20478;-71
2021/12/01 05:39:10;;;;;;;4.57;1.40;;;;;;;3.44;96.25;94931.97;4998863;28;20061;-71
2021/12/01 05:41:36;;;;;;;2.17;1.13;;;;;;;3.45;95.65;94916.91;4999597;28;20052;-70
2021/12/01 05:44:02;;;;;;;2.83;0.90;;;;;;;3.44;95.66;94910.81;4998536;28;20045;-71
2021/12/01 05:46:27;;;;;;;2.38;1.08;;;;;;;3.47;95.88;94907.69;4998646;28;20039;-70
2021/12/01 05:48:54;;;;;;;1.75;0.75;;;;;;;3.49;95.21;94902.94;5000169;28;20050;-72
2021/12/01 05:51:21;;;;;;;1.77;0.80;;;;;;;3.57;95.05;94922.88;4995892;28;20350;-73
2021/12/01 05:53:48;;;;;;;1.80;0.82;;;;;;;3.53;94.71;94898.78;4997132;28;20041;-71
2021/12/01 05:56:14;;;;;;;2.20;1.00;;;;;;;3.46;94.74;94890.22;4999348;28;20038;-71
2021/12/01 05:58:40;;;;;;;3.58;1.02;;;;;;;3.53;95.11;94892.69;4997478;28;20030;-70
2021/12/01 06:01:06;;;;;;;2.03;1.00;;;;;;;3.60;95.00;94917.13;4999383;28;20133;-70
2021/12/01 06:03:31;;;;;;;1.75;0.85;;;;;;;3.57;94.65;94891.94;5000141;28;20112;-70
2021/12/01 06:05:57;;;;;;;2.55;1.20;;;;;;;3.53;94.79;94895.34;4998746;28;20042;-71
2021/12/01 06:08:23;;;;;;;2.83;1.23;;;;;;;3.60;95.18;94878.25;4995850;28;20037;-73
2021/12/01 06:10:49;;;;;;;2.00;1.00;;;;;;;3.53;94.96;94856.47;5001111;28;20628;-70
2021/12/01 06:13:19;;;;;;;3.22;1.70;;;;;;;3.52;95.43;94859.34;4998487;28;20145;-70
2021/12/01 06:15:48;;;;;;;1.50;0.73;;;;;;;3.50;95.00;94840.25;4999863;28;20033;-70
2021/12/01 06:18:14;;;;;;;2.35;0.88;;;;;;;3.49;95.27;94843.94;4999085;28;20050;-70
2021/12/01 06:20:39;;;;;;;2.63;1.02;;;;;;;3.55;95.30;94841.16;5000527;28;20088;-70
2021/12/01 06:23:05;;;;;;;3.83;1.23;;;;;;;3.54;95.14;94844.84;4999001;28;20041;-70
2021/12/01 06:25:31;;;;;;;3.40;1.17;;;;;;;3.54;95.26;94828.97;4999567;28;20041;-73
2021/12/01 06:27:57;;;;;;;2.30;1.00;;;;;;;3.60;94.94;94827.19;5000375;28;20045;-70
2021/12/01 06:30:24;;;;;;;2.00;1.00;;;;;;;3.59;94.70;94820.31;4995966;28;20378;-71
2021/12/01 06:32:50;;;;;;;3.42;1.50;;;;;;;3.60;94.97;94812.13;5000243;28;20466;-72
2021/12/01 06:35:16;;;;;;;2.13;1.17;;;;;;;3.53;95.00;94814.16;4997309;28;20080;-70
2021/12/01 06:37:42;;;;;;;3.50;1.52;;;;;;;3.49;95.37;94804.28;4999460;28;20121;-73
2021/12/01 06:40:08;;;;;;;3.30;1.50;;;;;;;3.44;95.77;94798.94;4997262;28;20716;-74
2021/12/01 06:42:35;;;;;;;3.63;1.60;;;;;;;3.42;96.11;94796.53;5003402;28;20049;-74
2021/12/01 06:45:05;;;;;;;4.05;2.00;;;;;;;3.43;96.33;94792.06;5000003;28;20042;-71
2021/12/01 06:47:30;;;;;;;4.10;1.77;;;;;;;3.48;96.33;94798.19;4997919;28;20125;-70
2021/12/01 06:49:56;;;;;;;2.40;1.30;;;;;;;3.45;96.35;94785.47;4996855;28;20125;-72
2021/12/01 06:52:21;;;;;;;2.00;1.15;;;;;;;3.45;96.32;94759.03;4997884;28;20034;-73
2021/12/01 06:54:47;;;;;;;2.47;1.20;;;;;;;3.36;96.23;94781.66;5004473;28;20042;-71
2021/12/01 06:57:12;;;;;;;5.63;2.28;;;;;;;3.38;97.34;94761.06;5003341;28;20048;-71
2021/12/01 06:59:38;;;;;;;2.63;1.23;;;;;;;3.29;97.13;94757.22;5002845;28;20062;-72
2021/12/01 07:02:04;;;;;;;4.68;2.08;;;;;;;3.33;97.56;94756.47;5002356;28;20044;-72
2021/12/01 07:04:30;;;;;;;4.40;1.10;;;;;;;3.31;97.55;94744.56;5001044;28;20042;-71
2021/12/01 07:06:58;;;;;;;6.55;3.58;;;;;;;3.37;97.46;94738.31;5001662;28;20041;-71
2021/12/01 07:09:25;;;;;;;3.28;1.13;;;;;;;3.37;97.31;94734.84;5002186;28;20528;-70
2021/12/01 07:11:51;;;;;;;2.85;1.30;;;;;;;3.37;96.98;94719.78;4998575;28;20130;-70
2021/12/01 07:14:16;;;;;;;2.17;1.15;;;;;;;3.40;96.85;94727.22;5001202;28;20045;-70
2021/12/01 07:16:43;;;;;;;4.28;1.30;;;;;;;3.42;96.63;94729.63;5001315;28;20034;-74
2021/12/01 07:19:09;;;;;;;2.50;1.27;;;;;;;3.44;96.53;94725.69;5002651;28;20050;-71
2021/12/01 07:21:35;;;;;;;2.95;1.00;;;;;;;3.41;96.57;94744.69;5000617;28;20049;-74
2021/12/01 07:24:03;;;;;;;2.20;0.90;;;;;;;3.41;96.34;94722.72;5000191;28;20073;-70
2021/12/01 07:26:28;;;;;;;1.77;0.98;;;;;;;3.46;96.26;94706.94;5001545;28;20054;-72
2021/12/01 07:28:54;;;;;;;1.50;0.75;;;;;;;3.43;96.24;94721.47;5000856;28;20054;-74
2021/12/01 07:31:20;;;;;;;4.80;1.58;;;;;;;3.52;96.65;94700.66;5000560;28;20069;-71
2021/12/01 07:33:45;;;;;;;2.97;1.13;;;;;;;3.50;96.32;94695.63;5001015;28;20400;-71
2021/12/01 07:36:11;;;;;;;1.63;0.73;;;;;;;3.52;96.19;94696.19;4999285;28;20251;-72
2021/12/01 07:38:36;;;;;;;1.25;0.70;;;;;;;3.50;95.93;94694.81;5004524;28;20046;-71
2021/12/01 07:41:02;;;;;;;0.98;0.70;;;;;;;3.50;95.97;94695.63;5000430;28;20102;-71
2021/12/01 07:43:27;;;;;;;1.75;0.95;;;;;;;3.50;96.07;94685.06;5001920;28;20622;-71
2021/12/01 07:45:53;;;;;;;1.83;0.82;;;;;;;3.47;96.11;94693.47;5001224;28;20501;-71
2021/12/01 07:48:18;;;;;;;1.30;0.65;;;;;;;3.48;96.37;94660.69;4998837;28;20049;-72
2021/12/01 07:50:46;;;;;;;2.15;0.80;;;;;;;3.50;96.67;94682.41;5001842;28;20129;-72
2021/12/01 07:53:12;;;;;;;3.17;0.88;;;;;;;3.47;96.58;94676.78;5000583;28;20843;-71
2021/12/01 07:55:39;;;;;;;2.42;0.95;;;;;;;3.50;96.84;94676.28;5000880;28;20038;-74
2021/12/01 07:58:04;;;;;;;2.53;1.17;;;;;;;3.54;96.98;94666.84;4998664;28;20053;-73
2021/12/01 08:00:30;;;;;;;2.60;1.00;;;;;;;3.62;96.61;94663.75;5001878;28;20046;-72
2021/12/01 08:02:56;;;;;;;2.30;1.02;;;;;;;3.68;96.58;94643.44;4999172;28;20080;-73
2021/12/01 08:05:21;;;;;;;1.65;0.80;;;;;;;3.64;96.08;94646.56;4998961;28;20034;-72
2021/12/01 08:07:47;;;;;;;6.10;0.90;;;;;;;3.66;96.45;94621.72;4998720;28;20870;-71
2021/12/01 08:10:12;;;;;;;4.75;0.77;;;;;;;3.68;96.09;94632.88;5000605;28;20038;-71
2021/12/01 08:12:38;;;;;;;1.58;0.82;;;;;;;3.70;96.57;94642.13;5002546;28;20130;-71
2021/12/01 08:15:08;;;;;;;1.88;0.68;;;;;;;3.67;96.10;94625.97;5000402;28;20101;-71
2021/12/01 08:17:34;;;;;;;2.70;0.93;;;;;;;3.72;96.35;94628.66;5000589;28;20047;-71
2021/12/01 08:19:59;;;;;;;2.00;1.05;;;;;;;3.71;96.12;94650.88;5000433;28;20038;-73
2021/12/01 08:22:26;;;;;;;1.33;0.68;;;;;;;3.74;96.54;94637.16;5019565;28;20101;-71
2021/12/01 08:24:52;;;;;;;2.60;1.10;;;;;;;3.79;95.92;94632.69;5000637;28;20034;-71
2021/12/01 08:27:17;;;;;;;1.25;0.70;;;;;;;3.82;95.92;94618.19;4999889;28;20042;-71
2021/12/01 08:29:43;;;;;;;4.20;1.08;;;;;;;3.84;96.01;94608.94;5005014;28;20039;-71
2021/12/01 08:32:09;;;;;;;1.80;0.73;;;;;;;3.85;96.13;94591.22;4996501;28;20690;-71
2021/12/01 08:34:34;;;;;;;1.55;0.70;;;;;;;3.79;96.15;94605.44;5001651;28;20484;-71
2021/12/01 08:37:00;;;;;;;1.50;0.70;;;;;;;3.84;96.22;94600.22;4997935;28;20092;-71
2021/12/01 08:39:25;;;;;;;2.13;0.95;;;;;;;3.86;95.88;94606.03;4999685;28;20476;-74
2021/12/01 08:41:51;;;;;;;1.90;0.80;;;;;;;3.86;96.04;94590.97;4997638;28;20070;-71
2021/12/01 08:44:18;;;;;;;1.63;0.85;;;;;;;3.95;95.72;94607.19;4999540;28;20034;-71
2021/12/01 08:46:44;;;;;;;1.33;0.70;;;;;;;3.93;95.80;94598.69;4999116;28;20140;-71
2021/12/01 08:49:10;;;;;;;2.85;0.93;;;;;;;3.95;95.81;94595.78;4999501;28;20124;-71
2021/12/01 08:51:35;;;;;;;4.32;1.35;;;;;;;3.96;95.60;94597.38;4999327;28;20042;-74
2021/12/01 08:54:01;;;;;;;1.70;0.75;;;;;;;4.01;95.60;94578.91;5001896;28;20037;-72
2021/12/01 08:56:27;;;;;;;3.25;1.30;;;;;;;4.06;95.26;94593.00;4999597;28;20046;-72
2021/12/01 08:58:52;;;;;;;2.22;0.98;;;;;;;4.09;95.55;94579.25;4998240;28;20105;-75
2021/12/01 09:01:18;;;;;;;2.20;0.85;;;;;;;4.08;95.52;94564.41;5000104;28;20054;-74
2021/12/01 09:03:44;;;;;;;3.30;0.90;;;;;;;4.08;95.79;94579.50;4996622;28;20041;-72
2021/12/01 09:06:09;;;;;;;4.65;1.25;;;;;;;4.08;96.24;94559.13;5000414;28;20050;-71
2021/12/01 09:08:35;;;;;;;3.45;0.80;;;;;;;4.11;95.73;94557.81;4996979;28;20175;-70
2021/12/01 09:11:03;;;;;;;2.05;0.90;;;;;;;4.15;95.64;94554.41;4998822;28;20038;-72
2021/12/01 09:13:31;;;;;;;0.73;0.40;;;;;;;4.14;95.50;94555.47;5000501;28;20033;-72
2021/12/01 09:15:57;;;;;;;1.38;0.70;;;;;;;4.18;95.85;94547.81;4998882;28;20045;-72
2021/12/01 09:18:27;;;;;;;1.20;0.68;;;;;;;4.16;95.41;94560.50;4998737;28;20409;-71
2021/12/01 09:20:53;;;;;;;5.37;0.77;;;;;;;4.11;95.66;94548.00;5000077;28;20037;-73
2021/12/01 09:23:19;;;;;;;2.50;0.70;;;;;;;4.16;95.89;94553.34;5001248;28;20050;-70
2021/12/01 09:25:45;;;;;;;1.05;0.50;;;;;;;4.18;95.52;94551.25;5001842;28;20048;-71
2021/12/01 09:28:17;;;;;;;2.55;0.93;;;;;;;4.16;95.71;94553.34;4999091;28;20421;-70
2021/12/01 09:30:42;;;;;;;;;;;;;;;4.18;95.75;94551.25;5000355;28;20049;-74
2021/12/01 09:33:08;;;;;;;1.48;0.60;;;;;;;4.24;95.90;94543.34;4999102;28;19914;-72
2021/12/01 09:35:34;;;;;;;2.10;0.65;;;;;;;4.19;95.65;94536.94;4999163;28;20050;-72
2021/12/01 09:37:59;;;;;;;1.55;0.70;;;;;;;4.17;95.33;94543.56;4999711;28;20091;-73
2021/12/01 09:40:25;;;;;;;0.80;0.40;;;;;;;4.15;95.73;94559.69;5000781;28;20046;-72
2021/12/01 09:42:54;;;;;;;0.73;0.43;;;;;;;4.15;95.75;94551.75;5004385;28;20034;-72
2021/12/01 09:45:22;;;;;;;1.17;0.50;;;;;;;4.16;96.15;94548.06;5017021;28;20037;-69
2021/12/01 09:47:49;;;;;;;0.93;0.40;;;;;;;4.10;96.00;94554.38;5002581;28;20042;-69
2021/12/01 09:50:15;;;;;;;2.05;0.50;;;;;;;4.00;96.10;94537.63;5003434;28;20195;-70
2021/12/01 09:52:41;;;;;;;0.45;0.30;;;;;;;4.03;95.99;94539.75;5000592;28;20539;-69
2021/12/01 09:55:08;;;;;;;0.80;0.40;;;;;;;4.06;96.47;94540.06;5028399;28;20033;-70
2021/12/01 09:57:34;;;;;;;1.13;0.45;;;;;;;4.05;96.42;94551.69;4997739;28;20034;-71
2021/12/01 10:00:00;;;;;;;1.33;0.70;;;;;;;4.05;96.56;94521.78;4999683;28;20366;-70
2021/12/01 10:02:25;;;;;;;1.35;0.60;;;;;;;4.09;96.84;94507.78;4997966;28;20099;-69
2021/12/01 10:04:52;;;;;;;0.75;0.35;;;;;;;4.05;96.29;94511.19;4997064;28;20101;-70
2021/12/01 10:07:20;;;;;;;0.82;0.40;;;;;;;4.12;96.25;94515.19;4986432;28;20042;-69
2021/12/01 10:09:51;;;;;;;2.08;0.80;;;;;;;4.18;95.84;94511.53;4997035;28;20038;-69
2021/12/01 10:12:18;;;;;;;1.83;0.80;;;;;;;4.20;95.15;94492.75;4997210;28;20031;-69
2021/12/01 10:14:48;;;;;;;1.05;0.47;;;;;;;4.11;94.79;94479.19;4998337;28;20109;-69
2021/12/01 10:17:16;;;;;;;0.73;0.40;;;;;;;4.16;94.86;94481.88;4996392;28;20044;-71
2021/12/01 10:19:42;;;;;;;2.72;0.47;;;;;;;4.19;94.79;94486.66;4998883;28;20076;-72
2021/12/01 10:22:11;;;;;;;1.52;0.50;;;;;;;4.35;94.41;94476.94;4996964;28;20037;-70
2021/12/01 10:24:45;;;;;;;1.70;0.75;;;;;;;4.35;94.11;94469.00;4995737;28;20042;-71
2021/12/01 10:27:12;;;;;;;2.08;0.77;;;;;;;4.45;94.21;94457.66;5002766;28;20097;-73
2021/12/01 10:29:44;;;;;;;1.20;0.47;;;;;;;4.38;93.99;94463.19;4996588;28;20587;-73
2021/12/01 10:32:10;;;;;;;1.55;0.60;;;;;;;4.50;94.12;94446.28;4999727;28;20049;-71
2021/12/01 10:34:37;;;;;;;1.80;0.70;;;;;;;4.48;94.03;94463.25;4997742;28;20041;-70
2021/12/01 10:37:29;;;;;;;2.08;0.68;;;;;;;4.47;93.59;94444.97;4996427;28;20042;-72
2021/12/01 10:40:08;;;;;;;1.83;0.70;;;;;;;4.51;94.08;94426.69;4996283;28;20446;-69
2021/12/01 10:42:35;;;;;;;2.50;0.95;;;;;;;4.61;93.94;94430.19;5005608;28;20049;-70
2021/12/01 10:45:07;;;;;;;0.85;0.40;;;;;;;4.50;94.01;94423.25;4998146;28;20042;-73
2021/12/01 10:47:42;;;;;;;0.90;0.40;;;;;;;4.52;93.63;94418.50;4997985;28;20451;-70
2021/12/01 10:50:11;;;;;;;4.18;0.88;;;;;;;4.51;93.39;94406.28;4998072;28;20065;-72
2021/12/01 10:52:42;;;;;;;0.98;0.40;;;;;;;4.57;93.29;94397.31;4996419;28;20145;-73
2021/12/01 10:55:18;;;;;;;1.98;0.70;;;;;;;4.63;93.06;94393.63;5000287;28;20111;-69
2021/12/01 10:57:47;;;;;;;9.25;4.82;;;;;;;4.57;93.09;94392.00;5002845;28;20104;-72
2021/12/01 11:00:47;;;;;;;4.07;1.13;;;;;;;4.54;93.74;94376.66;4999917;28;20097;-70
2021/12/01 11:03:24;;;;;;;1.90;0.68;;;;;;;4.67;92.93;94381.47;4995564;28;20057;-70
2021/12/01 11:05:55;;;;;;;2.08;0.80;;;;;;;4.67;92.82;94370.03;4999570;28;20041;-72
2021/12/01 11:08:22;;;;;;;1.50;0.52;;;;;;;4.58;92.66;94372.41;4999240;28;20042;-70
2021/12/01 11:10:54;;;;;;;2.70;1.17;;;;;;;4.61;92.99;94356.00;4999329;28;20499;-70
2021/12/01 11:13:21;;;;;;;3.20;1.77;;;;;;;4.67;93.28;94354.97;4999087;28;20121;-69
2021/12/01 11:15:53;;;;;;;1.05;0.50;;;;;;;4.68;92.35;94356.56;4998016;28;20061;-71
2021/12/01 11:18:21;;;;;;;1.70;0.60;;;;;;;4.80;92.55;94363.44;4998069;28;20173;-73
2021/12/01 11:20:55;;;;;;;1.20;0.50;;;;;;;4.79;92.04;94360.00;4996589;28;20035;-70
2021/12/01 11:23:48;;;;;;;2.30;0.85;;;;;;;4.79;91.99;94345.97;4997904;28;20034;-70
2021/12/01 11:26:20;;;;;;;1.35;0.60;;;;;;;4.72;92.49;94349.66;5002537;28;20505;-73
2021/12/01 11:28:48;;;;;;;2.85;0.50;;;;;;;4.81;92.61;94349.13;4996060;28;20477;-71
2021/12/01 11:31:29;;;;;;;0.80;0.43;;;;;;;4.81;92.18;94354.44;4993083;28;20049;-72
2021/12/01 11:33:57;;;;;;;0.73;0.40;;;;;;;4.90;92.03;94331.66;4995766;28;20081;-73
2021/12/01 11:36:28;;;;;;;0.55;0.30;;;;;;;4.99;91.84;94328.25;4993908;28;20026;-71
2021/12/01 11:38:55;;;;;;;;;;;;;;;5.12;91.36;94324.25;4997766;28;20046;-71
2021/12/01 11:41:21;;;;;;;1.65;0.40;;;;;;;5.08;90.79;94319.75;4998427;28;19917;-71
2021/12/01 11:43:48;;;;;;;0.55;0.30;;;;;;;5.00;91.32;94321.88;4999742;28;20099;-70